Terminal Aerodrome Forecast
Issued by NWS

Home | Current Version | Previous Version | Text Only | Print | Product List | Glossary On
Versions: 1 2 3 4 5 6 7 8 9 10 11 12 13 14 15 16 17
000
FTUS41 KCAR 281120
TAFHUL
TAF
KHUL 281120Z 2812/2912 21009KT P6SM BKN008
     FM281300 22009KT P6SM BKN025
     FM281600 23009KT P6SM -SHRA VCTS BKN030CB
     FM282300 31008KT P6SM OVC030
     FM290100 33007KT P6SM BKN035
     FM290500 34007KT P6SM SCT150=

USA.gov is the U.S. government's official web portal to all federal, state and local government web resources and services.